createdAt,value
2019-04-11T00:00:01.888Z,-0.09
2019-04-11T00:01:01.878Z,-0.09
2019-04-11T00:02:02.550Z,-0.15
2019-04-11T00:03:02.996Z,-0.18
2019-04-11T00:04:01.952Z,-0.25
2019-04-11T00:05:02.329Z,-0.24
2019-04-11T00:06:01.874Z,-0.25
2019-04-11T00:07:01.871Z,-0.28
2019-04-11T00:08:01.938Z,-0.33
2019-04-11T00:09:02.648Z,-0.32
2019-04-11T00:10:01.883Z,-0.38
2019-04-11T00:11:01.879Z,-0.42
2019-04-11T00:12:02.070Z,-0.46
2019-04-11T00:13:15.128Z,-0.49
2019-04-11T00:14:01.833Z,-0.55
2019-04-11T00:15:02.460Z,-0.56
2019-04-11T00:16:01.965Z,-0.55
2019-04-11T00:17:01.908Z,-0.58
2019-04-11T00:18:02.816Z,-0.59
2019-04-11T00:19:03.048Z,-0.59
2019-04-11T00:20:02.243Z,-0.59
2019-04-11T00:21:01.875Z,-0.63
2019-04-11T00:22:01.840Z,-0.66
2019-04-11T00:23:01.898Z,-0.69
2019-04-11T00:24:02.780Z,-0.70
2019-04-11T00:25:03.088Z,-0.66
2019-04-11T00:26:02.157Z,-0.65
2019-04-11T00:27:02.477Z,-0.63
2019-04-11T00:28:01.916Z,-0.66
2019-04-11T00:29:01.873Z,-0.66
2019-04-11T00:30:02.013Z,-0.66
2019-04-11T00:31:01.899Z,-0.67
2019-04-11T00:32:04.897Z,-0.69
2019-04-11T00:33:02.227Z,-0.72
2019-04-11T00:34:02.560Z,-0.73
2019-04-11T00:35:01.953Z,-0.78
2019-04-11T00:36:02.042Z,-0.81
2019-04-11T00:37:03.005Z,-0.85
2019-04-11T00:38:01.958Z,-0.91
2019-04-11T00:39:01.960Z,-0.95
2019-04-11T00:40:01.892Z,-0.99
2019-04-11T00:41:01.972Z,-1.03
2019-04-11T00:42:02.061Z,-1.03
2019-04-11T00:43:03.079Z,-1.06
2019-04-11T00:44:02.880Z,-1.03
2019-04-11T00:45:01.882Z,-1.06
2019-04-11T00:46:02.937Z,-1.10
2019-04-11T00:47:01.890Z,-1.15
2019-04-11T00:48:01.876Z,-1.21
2019-04-11T00:49:02.009Z,-1.15
2019-04-11T00:50:03.985Z,-1.07
2019-04-11T00:51:01.956Z,-1.13
2019-04-11T00:52:02.677Z,-1.19
2019-04-11T00:53:01.886Z,-1.26
2019-04-11T00:54:02.617Z,-1.32
2019-04-11T00:55:03.017Z,-1.40
2019-04-11T00:56:02.053Z,-1.47
2019-04-11T00:57:01.902Z,-1.48
2019-04-11T00:58:01.907Z,-1.45
2019-04-11T00:59:02.499Z,-1.45
2019-04-11T01:00:02.888Z,-1.47
2019-04-11T01:01:01.919Z,-1.41
2019-04-11T01:02:02.097Z,-1.41
2019-04-11T01:03:03.258Z,-1.45
2019-04-11T01:04:01.896Z,-1.49
2019-04-11T01:05:01.991Z,-1.55
2019-04-11T01:06:01.967Z,-1.59
2019-04-11T01:07:02.721Z,-1.62
2019-04-11T01:08:02.983Z,-1.59
2019-04-11T01:09:02.119Z,-1.55
2019-04-11T01:10:01.983Z,-1.54
2019-04-11T01:11:01.906Z,-1.51
2019-04-11T01:12:02.600Z,-1.49
2019-04-11T01:13:01.908Z,-1.55
2019-04-11T01:14:01.995Z,-1.59
2019-04-11T01:15:03.081Z,-1.62
2019-04-11T01:16:02.995Z,-1.66
2019-04-11T01:17:03.137Z,-1.69
2019-04-11T01:18:01.900Z,-1.67
2019-04-11T01:19:02.579Z,-1.67
2019-04-11T01:20:02.936Z,-1.71
2019-04-11T01:21:02.140Z,-1.65
2019-04-11T01:22:01.910Z,-1.60
2019-04-11T01:23:02.739Z,-1.63
2019-04-11T01:24:01.910Z,-1.69
2019-04-11T01:25:02.161Z,-1.67
2019-04-11T01:26:03.159Z,-1.71
2019-04-11T01:27:02.002Z,-1.73
2019-04-11T01:28:02.635Z,-1.67
2019-04-11T01:29:02.945Z,-1.63
2019-04-11T01:30:02.206Z,-1.58
2019-04-11T01:31:03.050Z,-1.58
2019-04-11T01:32:02.320Z,-1.62
2019-04-11T01:33:02.514Z,-1.65
2019-04-11T01:34:02.361Z,-1.58
2019-04-11T01:35:01.912Z,-1.43
2019-04-11T01:36:02.670Z,-1.29
2019-04-11T01:37:01.988Z,-1.30
2019-04-11T01:38:01.969Z,-1.32
2019-04-11T01:39:02.995Z,-1.37
2019-04-11T01:40:02.010Z,-1.43
2019-04-11T01:41:02.468Z,-1.48
2019-04-11T01:42:02.761Z,-1.52
2019-04-11T01:43:02.001Z,-1.55
2019-04-11T01:44:05.246Z,-1.59
2019-04-11T01:45:03.145Z,-1.63
2019-04-11T01:46:02.223Z,-1.63
2019-04-11T01:47:02.548Z,-1.67
2019-04-11T01:48:01.993Z,-1.70
2019-04-11T01:49:01.931Z,-1.71
2019-04-11T01:50:03.073Z,-1.74
2019-04-11T01:51:02.280Z,-1.71
2019-04-11T01:52:02.237Z,-1.69
2019-04-11T01:53:02.632Z,-1.69
2019-04-11T01:54:02.017Z,-1.69
2019-04-11T01:55:02.114Z,-1.74
2019-04-11T01:56:03.075Z,-1.77
2019-04-11T01:57:01.941Z,-1.81
2019-04-11T01:58:02.582Z,-1.80
2019-04-11T01:59:02.794Z,-1.82
2019-04-11T02:00:02.065Z,-1.85
2019-04-11T02:01:01.942Z,-1.89
2019-04-11T02:02:03.332Z,-1.97
2019-04-11T02:03:03.034Z,-1.98
2019-04-11T02:04:02.048Z,-2.02
2019-04-11T02:05:02.869Z,-2.09
2019-04-11T02:06:01.968Z,-2.07
2019-04-11T02:07:02.534Z,-2.05
2019-04-11T02:08:02.905Z,-2.08
2019-04-11T02:09:02.039Z,-2.12
2019-04-11T02:10:02.538Z,-2.12
2019-04-11T02:11:03.306Z,-2.11
2019-04-11T02:12:01.979Z,-2.11
2019-04-11T02:13:02.047Z,-2.09
2019-04-11T02:14:10.368Z,-2.02
2019-04-11T02:15:02.033Z,-2.02
2019-04-11T02:16:02.946Z,-2.04
2019-04-11T02:17:02.203Z,-2.05
2019-04-11T02:18:01.975Z,-2.12
2019-04-11T02:19:02.042Z,-2.16
2019-04-11T02:20:02.791Z,-2.20
2019-04-11T02:21:03.136Z,-2.26
2019-04-11T02:22:02.204Z,-2.26
2019-04-11T02:23:02.548Z,-2.22
2019-04-11T02:24:01.929Z,-2.22
2019-04-11T02:25:01.981Z,-2.22
2019-04-11T02:26:03.024Z,-2.26
2019-04-11T02:27:02.893Z,-2.30
2019-04-11T02:28:01.889Z,-2.34
2019-04-11T02:29:01.950Z,-2.38
2019-04-11T02:30:03.955Z,-2.41
2019-04-11T02:31:02.911Z,-2.45
2019-04-11T02:32:05.141Z,-2.45
2019-04-11T02:33:02.042Z,-2.48
2019-04-11T02:34:03.919Z,-2.44
2019-04-11T02:35:04.611Z,-2.42
2019-04-11T02:36:03.144Z,-2.42
2019-04-11T02:37:02.487Z,-2.47
2019-04-11T02:38:02.914Z,-2.51
2019-04-11T02:39:07.334Z,-2.49
2019-04-11T02:40:03.248Z,-2.51
2019-04-11T02:41:03.670Z,-2.49
2019-04-11T02:42:03.683Z,-2.51
2019-04-11T02:43:02.087Z,-2.49
2019-04-11T02:44:03.499Z,-2.42
2019-04-11T02:45:16.765Z,-2.45
2019-04-11T02:46:11.740Z,-2.48
2019-04-11T02:47:09.507Z,-2.52
2019-04-11T02:48:03.791Z,-2.55
2019-04-11T02:49:03.150Z,-2.61
2019-04-11T02:50:03.497Z,-2.64
2019-04-11T02:51:03.168Z,-2.67
2019-04-11T02:52:02.688Z,-2.67
2019-04-11T02:53:02.883Z,-2.67
2019-04-11T02:54:02.346Z,-2.65
2019-04-11T02:55:03.455Z,-2.68
2019-04-11T02:56:02.788Z,-2.67
2019-04-11T02:57:02.678Z,-2.70
2019-04-11T02:58:03.965Z,-2.68
2019-04-11T02:59:02.341Z,-2.68
2019-04-11T03:00:02.158Z,-2.70
2019-04-11T03:01:05.119Z,-2.68
2019-04-11T03:02:01.993Z,-2.67
2019-04-11T03:03:03.377Z,-2.64
2019-04-11T03:04:04.344Z,-2.64
2019-04-11T03:05:02.812Z,-2.65
2019-04-11T03:06:02.752Z,-2.67
2019-04-11T03:07:03.798Z,-2.65
2019-04-11T03:08:06.816Z,-2.68
2019-04-11T03:09:02.521Z,-2.68
2019-04-11T03:10:03.077Z,-2.67
2019-04-11T03:11:01.999Z,-2.64
2019-04-11T03:12:03.007Z,-2.64
2019-04-11T03:13:02.861Z,-2.68
2019-04-11T03:14:03.897Z,-2.67
2019-04-11T03:15:14.887Z,-2.71
2019-04-11T03:16:16.867Z,-2.75
2019-04-11T03:17:11.856Z,-2.74
2019-04-11T03:18:06.645Z,-2.65
2019-04-11T03:19:17.919Z,-2.64
2019-04-11T03:20:13.149Z,-2.59
2019-04-11T03:21:07.266Z,-2.52
2019-04-11T03:22:03.288Z,-2.41
2019-04-11T03:23:05.738Z,-2.41
2019-04-11T03:24:02.907Z,-2.41
2019-04-11T03:25:03.171Z,-2.42
2019-04-11T03:26:03.187Z,-2.35
2019-04-11T03:27:04.767Z,-2.35
2019-04-11T03:28:02.110Z,-2.38
2019-04-11T03:29:03.868Z,-2.35
2019-04-11T03:30:03.335Z,-2.37
2019-04-11T03:31:37.429Z,-2.41
2019-04-11T03:32:41.993Z,-2.40
2019-04-11T03:34:01.318Z,-2.40
2019-04-11T03:34:53.511Z,-2.35
2019-04-11T03:36:00.060Z,-2.38
2019-04-11T03:38:27.237Z,-2.40
2019-04-11T03:39:22.864Z,-2.38
2019-04-11T03:40:22.500Z,-2.33
2019-04-11T03:41:21.699Z,-2.34
2019-04-11T03:42:17.472Z,-2.27
2019-04-11T03:43:18.283Z,-2.29
2019-04-11T03:44:11.993Z,-2.30
2019-04-11T03:45:23.277Z,-2.31
2019-04-11T03:46:19.549Z,-2.35
2019-04-11T03:47:16.610Z,-2.37
2019-04-11T03:48:19.786Z,-2.38
2019-04-11T03:49:16.360Z,-2.35
2019-04-11T03:50:08.334Z,-2.27
2019-04-11T03:51:03.954Z,-2.29
2019-04-11T03:52:03.636Z,-2.30
2019-04-11T03:53:03.795Z,-2.33
2019-04-11T03:54:02.034Z,-2.37
2019-04-11T03:55:03.871Z,-2.42
2019-04-11T03:56:03.681Z,-2.45
2019-04-11T03:57:03.602Z,-2.42
2019-04-11T03:58:03.661Z,-2.38
2019-04-11T03:59:03.827Z,-2.40
2019-04-11T04:00:05.689Z,-2.44
2019-04-11T04:01:05.574Z,-2.49
2019-04-11T04:02:03.280Z,-2.53
2019-04-11T04:03:03.760Z,-2.55
2019-04-11T04:04:02.733Z,-2.57
2019-04-11T04:05:03.823Z,-2.57
2019-04-11T04:06:02.221Z,-2.51
2019-04-11T04:07:02.540Z,-2.45
2019-04-11T04:08:03.934Z,-2.44
2019-04-11T04:09:02.771Z,-2.49
2019-04-11T04:10:03.061Z,-2.55
2019-04-11T04:11:03.830Z,-2.60
2019-04-11T04:12:02.899Z,-2.61
2019-04-11T04:13:03.236Z,-2.63
2019-04-11T04:14:03.732Z,-2.59
2019-04-11T04:15:04.599Z,-2.64
2019-04-11T04:16:12.005Z,-2.68
2019-04-11T04:17:04.157Z,-2.65
2019-04-11T04:18:03.573Z,-2.70
2019-04-11T04:19:03.576Z,-2.68
2019-04-11T04:20:04.012Z,-2.68
2019-04-11T04:21:04.131Z,-2.71
2019-04-11T04:22:03.053Z,-2.75
2019-04-11T04:23:03.214Z,-2.71
2019-04-11T04:24:03.846Z,-2.67
2019-04-11T04:25:04.292Z,-2.67
2019-04-11T04:26:03.166Z,-2.70
2019-04-11T04:27:02.684Z,-2.74
2019-04-11T04:28:03.060Z,-2.76
2019-04-11T04:29:02.637Z,-2.76
2019-04-11T04:30:04.600Z,-2.75
2019-04-11T04:31:02.226Z,-2.79
2019-04-11T04:32:02.815Z,-2.79
2019-04-11T04:33:02.879Z,-2.83
2019-04-11T04:34:03.705Z,-2.87
2019-04-11T04:35:02.065Z,-2.85
2019-04-11T04:36:02.640Z,-2.92
2019-04-11T04:37:03.601Z,-2.93
2019-04-11T04:38:03.066Z,-2.92
2019-04-11T04:39:03.634Z,-2.83
2019-04-11T04:40:18.211Z,-2.87
2019-04-11T04:41:14.988Z,-2.87
2019-04-11T04:42:08.893Z,-2.85
2019-04-11T04:43:04.976Z,-2.81
2019-04-11T04:44:02.147Z,-2.81
2019-04-11T04:45:02.757Z,-2.81
2019-04-11T04:46:20.401Z,-2.89
2019-04-11T04:47:13.919Z,-2.93
2019-04-11T04:48:07.579Z,-2.90
2019-04-11T04:49:02.477Z,-2.93
2019-04-11T04:50:03.974Z,-2.86
2019-04-11T04:51:07.827Z,-2.89
2019-04-11T04:52:03.868Z,-2.90
2019-04-11T04:53:02.722Z,-2.94
2019-04-11T04:54:03.844Z,-2.97
2019-04-11T04:55:03.915Z,-2.90
2019-04-11T04:56:02.689Z,-2.85
2019-04-11T04:57:02.959Z,-2.87
2019-04-11T04:58:02.186Z,-2.87
2019-04-11T04:59:02.727Z,-2.87
2019-04-11T05:00:03.201Z,-2.85
2019-04-11T05:01:04.182Z,-2.72
2019-04-11T05:02:03.784Z,-2.65
2019-04-11T05:03:02.597Z,-2.61
2019-04-11T05:04:02.256Z,-2.59
2019-04-11T05:05:03.835Z,-2.57
2019-04-11T05:06:03.888Z,-2.55
2019-04-11T05:07:03.293Z,-2.55
2019-04-11T05:08:02.846Z,-2.53
2019-04-11T05:09:02.015Z,-2.53
2019-04-11T05:10:03.256Z,-2.55
2019-04-11T05:11:02.385Z,-2.52
2019-04-11T05:12:03.418Z,-2.52
2019-04-11T05:13:03.557Z,-2.51
2019-04-11T05:14:03.016Z,-2.52
2019-04-11T05:15:03.555Z,-2.49
2019-04-11T05:16:08.309Z,-2.47
2019-04-11T05:17:02.492Z,-2.34
2019-04-11T05:18:02.160Z,-2.26
2019-04-11T05:19:02.154Z,-2.18
2019-04-11T05:20:03.024Z,-2.16
2019-04-11T05:21:03.255Z,-2.16
2019-04-11T05:22:02.084Z,-2.13
2019-04-11T05:23:02.161Z,-2.12
2019-04-11T05:24:02.160Z,-2.12
2019-04-11T05:25:03.569Z,-2.13
2019-04-11T05:26:02.030Z,-2.13
2019-04-11T05:27:02.137Z,-2.12
2019-04-11T05:28:02.294Z,-2.09
2019-04-11T05:29:02.741Z,-2.05
2019-04-11T05:30:02.933Z,-2.01
2019-04-11T05:31:02.595Z,-1.93
2019-04-11T05:32:03.125Z,-1.88
2019-04-11T05:33:02.107Z,-1.82
2019-04-11T05:34:02.095Z,-1.74
2019-04-11T05:35:02.880Z,-1.66
2019-04-11T05:36:02.070Z,-1.59
2019-04-11T05:37:02.066Z,-1.52
2019-04-11T05:38:02.117Z,-1.48
2019-04-11T05:39:02.402Z,-1.44
2019-04-11T05:40:03.063Z,-1.44
2019-04-11T05:41:02.242Z,-1.37
2019-04-11T05:42:03.194Z,-1.36
2019-04-11T05:43:02.040Z,-1.32
2019-04-11T05:44:05.229Z,-1.25
2019-04-11T05:45:03.191Z,-1.15
2019-04-11T05:46:03.612Z,-1.15
2019-04-11T05:47:04.956Z,-1.13
2019-04-11T05:48:03.133Z,-1.08
2019-04-11T05:49:02.657Z,-1.04
2019-04-11T05:50:07.645Z,-0.99
2019-04-11T05:51:02.106Z,-0.91
2019-04-11T05:52:02.195Z,-0.82
2019-04-11T05:53:03.676Z,-0.70
2019-04-11T05:54:07.431Z,-0.52
2019-04-11T05:55:02.913Z,-0.35
2019-04-11T05:56:02.096Z,-0.15
2019-04-11T05:57:03.199Z,0.05
2019-04-11T05:58:05.883Z,0.26
2019-04-11T05:59:02.173Z,0.48
2019-04-11T06:00:02.126Z,0.67
2019-04-11T06:01:03.324Z,0.81
2019-04-11T06:02:06.445Z,1.00
2019-04-11T06:03:02.105Z,1.17
2019-04-11T06:04:02.110Z,1.23
2019-04-11T06:05:02.878Z,1.42
2019-04-11T06:06:03.269Z,1.57
2019-04-11T06:07:03.174Z,1.74
2019-04-11T06:08:02.585Z,1.90
2019-04-11T06:09:02.286Z,2.06
2019-04-11T06:10:06.971Z,2.28
2019-04-11T06:11:03.879Z,2.51
2019-04-11T06:12:03.212Z,2.54
2019-04-11T06:13:02.483Z,2.55
2019-04-11T06:14:03.863Z,2.55
2019-04-11T06:15:02.194Z,2.69
2019-04-11T06:16:02.888Z,2.88
2019-04-11T06:17:02.202Z,3.01
2019-04-11T06:18:02.790Z,3.05
2019-04-11T06:19:02.206Z,3.06
2019-04-11T06:20:02.201Z,3.17
2019-04-11T06:21:02.210Z,3.20
2019-04-11T06:22:02.328Z,3.33
2019-04-11T06:23:03.253Z,3.29
2019-04-11T06:24:02.215Z,3.25
2019-04-11T06:25:03.510Z,3.25
2019-04-11T06:26:02.313Z,3.29
2019-04-11T06:27:02.192Z,3.36
2019-04-11T06:28:02.161Z,3.43
2019-04-11T06:29:14.073Z,3.43
2019-04-11T06:30:03.276Z,3.42
2019-04-11T06:31:04.448Z,3.48
2019-04-11T06:32:02.121Z,3.65
2019-04-11T06:33:02.554Z,3.80
2019-04-11T06:34:02.216Z,3.80
2019-04-11T06:35:02.199Z,3.87
2019-04-11T06:36:02.196Z,3.99
2019-04-11T06:37:02.095Z,4.04
2019-04-11T06:38:02.641Z,4.11
2019-04-11T06:39:02.981Z,4.21
2019-04-11T06:40:02.536Z,4.18
2019-04-11T06:41:02.161Z,4.26
2019-04-11T06:42:04.183Z,4.43
2019-04-11T06:43:03.268Z,4.63
2019-04-11T06:44:02.642Z,4.88
2019-04-11T06:45:02.296Z,5.10
2019-04-11T06:46:02.941Z,5.33
2019-04-11T06:47:03.480Z,5.40
2019-04-11T06:48:02.148Z,5.44
2019-04-11T06:49:02.474Z,5.42
2019-04-11T06:50:02.839Z,5.49
2019-04-11T06:51:02.221Z,5.66
2019-04-11T06:52:02.282Z,5.75
2019-04-11T06:53:02.355Z,5.79
2019-04-11T06:54:02.221Z,5.77
2019-04-11T06:55:02.597Z,5.95
2019-04-11T06:56:03.483Z,6.14
2019-04-11T06:57:02.330Z,6.04
2019-04-11T06:58:02.640Z,6.06
2019-04-11T06:59:02.229Z,6.09
2019-04-11T07:00:02.980Z,6.03
2019-04-11T07:01:03.431Z,6.19
2019-04-11T07:02:08.921Z,6.23
2019-04-11T07:03:03.407Z,6.34
2019-04-11T07:04:03.052Z,6.40
2019-04-11T07:05:02.593Z,6.47
2019-04-11T07:06:02.901Z,6.59
2019-04-11T07:07:02.346Z,6.61
2019-04-11T07:08:02.309Z,6.78
2019-04-11T07:09:03.213Z,6.82
2019-04-11T07:10:02.302Z,6.74
2019-04-11T07:11:02.934Z,6.68
2019-04-11T07:12:02.109Z,6.47
2019-04-11T07:13:03.373Z,6.20
2019-04-11T07:14:02.107Z,6.25
2019-04-11T07:15:02.543Z,6.33
2019-04-11T07:16:02.678Z,6.40
2019-04-11T07:17:06.945Z,6.52
2019-04-11T07:18:04.821Z,6.63
2019-04-11T07:19:02.824Z,6.64
2019-04-11T07:20:02.550Z,6.74
2019-04-11T07:21:02.862Z,6.94
2019-04-11T07:22:02.242Z,7.01
2019-04-11T07:23:02.247Z,7.16
2019-04-11T07:24:03.244Z,7.24
2019-04-11T07:25:02.204Z,7.44
2019-04-11T07:26:02.531Z,7.53
2019-04-11T07:27:03.104Z,7.48
2019-04-11T07:28:02.254Z,7.31
2019-04-11T07:29:02.249Z,7.38
2019-04-11T07:30:03.160Z,7.38
2019-04-11T07:31:02.456Z,7.41
2019-04-11T07:32:02.600Z,7.41
2019-04-11T07:33:02.284Z,7.24
2019-04-11T07:34:02.532Z,7.30
2019-04-11T07:35:02.347Z,7.33
2019-04-11T07:36:02.136Z,7.29
2019-04-11T07:37:02.759Z,7.24
2019-04-11T07:38:03.133Z,7.09
2019-04-11T07:39:03.237Z,7.20
2019-04-11T07:40:03.110Z,7.34
2019-04-11T07:41:02.147Z,7.44
2019-04-11T07:42:02.212Z,7.46
2019-04-11T07:43:08.400Z,7.52
2019-04-11T07:44:02.126Z,7.64
2019-04-11T07:45:02.194Z,7.65
2019-04-11T07:46:02.744Z,7.72
2019-04-11T07:47:14.630Z,7.72
2019-04-11T07:48:02.817Z,7.82
2019-04-11T07:49:02.270Z,7.83
2019-04-11T07:50:02.357Z,7.86
2019-04-11T07:51:02.259Z,7.82
2019-04-11T07:52:02.590Z,7.92
2019-04-11T07:53:03.093Z,7.92
2019-04-11T07:54:02.653Z,7.89
2019-04-11T07:55:02.613Z,7.71
2019-04-11T07:56:03.619Z,7.64
2019-04-11T07:57:02.278Z,7.74
2019-04-11T07:58:02.205Z,7.86
2019-04-11T07:59:02.927Z,7.86
2019-04-11T08:00:02.212Z,7.86
2019-04-11T08:01:02.208Z,8.04
2019-04-11T08:02:02.279Z,8.08
2019-04-11T08:03:02.271Z,8.06
2019-04-11T08:04:02.267Z,8.16
2019-04-11T08:05:02.455Z,8.24
2019-04-11T08:06:03.049Z,8.23
2019-04-11T08:07:02.262Z,8.22
2019-04-11T08:08:04.787Z,8.16
2019-04-11T08:09:02.711Z,8.30
2019-04-11T08:10:02.525Z,8.38
2019-04-11T08:11:02.426Z,8.43
2019-04-11T08:12:02.455Z,8.31
2019-04-11T08:13:02.196Z,8.35
2019-04-11T08:14:02.284Z,8.38
2019-04-11T08:15:02.268Z,8.22
2019-04-11T08:16:02.262Z,7.89
2019-04-11T08:17:02.260Z,8.04
2019-04-11T08:18:02.183Z,8.12
2019-04-11T08:19:03.463Z,8.16
2019-04-11T08:20:03.051Z,8.13
2019-04-11T08:21:02.169Z,7.95
2019-04-11T08:22:03.021Z,7.99
2019-04-11T08:23:03.393Z,8.11
2019-04-11T08:24:02.414Z,8.30
2019-04-11T08:25:02.278Z,8.47
2019-04-11T08:26:02.279Z,8.71
2019-04-11T08:27:02.995Z,8.82
2019-04-11T08:28:04.250Z,8.89
2019-04-11T08:29:09.163Z,8.98
2019-04-11T08:30:02.681Z,9.08
2019-04-11T08:31:03.385Z,9.07
2019-04-11T08:32:02.681Z,9.12
2019-04-11T08:33:02.450Z,9.25
2019-04-11T08:34:02.757Z,9.32
2019-04-11T08:35:02.282Z,9.50
2019-04-11T08:36:02.219Z,9.65
2019-04-11T08:37:03.253Z,9.60
2019-04-11T08:38:02.780Z,9.66
2019-04-11T08:39:02.220Z,9.69
2019-04-11T08:40:02.199Z,9.49
2019-04-11T08:41:03.072Z,9.65
2019-04-11T08:42:03.193Z,9.64
2019-04-11T08:43:02.619Z,9.57
2019-04-11T08:44:02.539Z,9.57
2019-04-11T08:45:02.229Z,9.49
2019-04-11T08:46:02.579Z,9.46
2019-04-11T08:47:02.604Z,9.53
2019-04-11T08:48:02.574Z,9.46
2019-04-11T08:49:03.540Z,9.36
2019-04-11T08:50:02.327Z,9.36
2019-04-11T08:51:03.059Z,9.16
2019-04-11T08:52:03.449Z,9.36
2019-04-11T08:53:02.582Z,9.51
2019-04-11T08:54:02.241Z,9.49
2019-04-11T08:55:02.411Z,9.50
2019-04-11T08:56:03.851Z,9.44
2019-04-11T08:57:03.375Z,9.60
2019-04-11T08:58:02.474Z,9.53
2019-04-11T08:59:02.842Z,9.61
2019-04-11T09:00:02.309Z,9.71
2019-04-11T09:01:03.370Z,9.71
2019-04-11T09:02:02.752Z,9.75
2019-04-11T09:03:02.271Z,9.83
2019-04-11T09:04:07.387Z,9.76
2019-04-11T09:05:06.951Z,9.89
2019-04-11T09:06:02.757Z,10.00
2019-04-11T09:07:03.289Z,10.16
2019-04-11T09:08:02.432Z,10.36
2019-04-11T09:09:02.914Z,10.20
2019-04-11T09:10:02.291Z,9.98
2019-04-11T09:11:02.306Z,10.00
2019-04-11T09:12:02.570Z,10.14
2019-04-11T09:13:02.820Z,10.36
2019-04-11T09:14:02.321Z,10.50
2019-04-11T09:15:02.645Z,10.69
2019-04-11T09:16:03.440Z,10.77
2019-04-11T09:17:02.316Z,10.50
2019-04-11T09:18:06.128Z,10.35
2019-04-11T09:19:03.569Z,10.18
2019-04-11T09:20:03.279Z,10.00
2019-04-11T09:21:02.401Z,9.72
2019-04-11T09:22:02.242Z,9.31
2019-04-11T09:23:02.229Z,9.16
2019-04-11T09:24:02.425Z,8.76
2019-04-11T09:25:03.289Z,8.74
2019-04-11T09:26:03.520Z,8.69
2019-04-11T09:27:02.466Z,8.53
2019-04-11T09:28:02.854Z,8.46
2019-04-11T09:29:02.272Z,8.45
2019-04-11T09:30:02.613Z,8.47
2019-04-11T09:31:05.132Z,8.54
2019-04-11T09:32:02.321Z,8.45
2019-04-11T09:33:02.546Z,8.39
2019-04-11T09:34:02.272Z,8.38
2019-04-11T09:35:02.269Z,8.35
2019-04-11T09:36:02.320Z,8.38
2019-04-11T09:37:03.147Z,8.20
2019-04-11T09:38:02.306Z,8.30
2019-04-11T09:39:02.534Z,8.58
2019-04-11T09:40:03.592Z,8.89
2019-04-11T09:41:02.331Z,9.38
2019-04-11T09:42:03.061Z,9.54
2019-04-11T09:43:02.271Z,9.53
2019-04-11T09:44:02.333Z,9.30
2019-04-11T09:45:03.464Z,8.82
2019-04-11T09:46:02.280Z,8.83
2019-04-11T09:47:03.408Z,8.89
2019-04-11T09:48:13.425Z,8.89
2019-04-11T09:49:02.548Z,8.89
2019-04-11T09:50:02.427Z,8.93
2019-04-11T09:51:02.344Z,8.90
2019-04-11T09:52:02.586Z,8.89
2019-04-11T09:53:03.569Z,8.83
2019-04-11T09:54:03.503Z,8.83
2019-04-11T09:55:02.362Z,8.78
2019-04-11T09:56:02.641Z,8.82
2019-04-11T09:57:02.364Z,8.85
2019-04-11T09:58:02.957Z,8.93
2019-04-11T09:59:02.418Z,8.87
2019-04-11T10:00:02.289Z,8.83
2019-04-11T10:01:03.695Z,8.85
2019-04-11T10:02:02.500Z,8.82
2019-04-11T10:03:02.324Z,8.91
2019-04-11T10:04:03.611Z,8.90
2019-04-11T10:05:02.781Z,8.89
2019-04-11T10:06:03.018Z,8.86
2019-04-11T10:07:03.427Z,8.76
2019-04-11T10:08:02.376Z,8.80
2019-04-11T10:09:03.692Z,8.71
2019-04-11T10:10:02.653Z,8.62
2019-04-11T10:11:02.299Z,8.69
2019-04-11T10:12:02.439Z,8.69
2019-04-11T10:13:02.680Z,8.71
2019-04-11T10:14:02.381Z,8.54
2019-04-11T10:15:03.108Z,8.56
2019-04-11T10:16:02.276Z,8.64
2019-04-11T10:17:02.327Z,8.58
2019-04-11T10:18:03.122Z,8.60
2019-04-11T10:19:03.378Z,8.58
2019-04-11T10:20:02.788Z,8.60
2019-04-11T10:21:02.292Z,8.54
2019-04-11T10:22:02.784Z,8.60
2019-04-11T10:23:03.334Z,8.57
2019-04-11T10:24:02.243Z,8.53
2019-04-11T10:25:03.249Z,8.33
2019-04-11T10:26:03.461Z,8.35
2019-04-11T10:27:02.621Z,8.23
2019-04-11T10:28:02.841Z,8.16
2019-04-11T10:29:02.328Z,8.15
2019-04-11T10:30:02.330Z,7.97
2019-04-11T10:31:02.294Z,8.04
2019-04-11T10:32:03.242Z,8.22
2019-04-11T10:33:02.324Z,8.38
2019-04-11T10:34:03.254Z,8.50
2019-04-11T10:35:02.287Z,8.46
2019-04-11T10:36:03.022Z,8.43
2019-04-11T10:37:03.509Z,8.42
2019-04-11T10:38:02.442Z,8.45
2019-04-11T10:39:02.732Z,8.51
2019-04-11T10:40:02.385Z,8.37
2019-04-11T10:41:02.315Z,8.34
2019-04-11T10:42:02.320Z,8.46
2019-04-11T10:43:02.568Z,8.49
2019-04-11T10:44:02.453Z,8.19
2019-04-11T10:45:02.720Z,8.24
2019-04-11T10:46:02.812Z,8.38
2019-04-11T10:47:02.392Z,8.46
2019-04-11T10:48:03.307Z,8.53
2019-04-11T10:49:03.385Z,8.61
2019-04-11T10:50:03.114Z,8.62
2019-04-11T10:51:02.369Z,8.53
2019-04-11T10:52:02.465Z,8.56
2019-04-11T10:53:02.719Z,8.38
2019-04-11T10:54:04.303Z,8.35
2019-04-11T10:55:03.062Z,8.31
2019-04-11T10:56:02.398Z,8.12
2019-04-11T10:57:03.432Z,8.01
2019-04-11T10:58:02.661Z,8.01
2019-04-11T10:59:02.325Z,8.17
2019-04-11T11:00:03.095Z,8.34
2019-04-11T11:01:02.333Z,8.51
2019-04-11T11:02:02.349Z,8.60
2019-04-11T11:03:02.332Z,8.79
2019-04-11T11:04:03.369Z,8.97
2019-04-11T11:05:03.192Z,9.09
2019-04-11T11:06:03.171Z,9.22
2019-04-11T11:07:02.447Z,9.18
2019-04-11T11:08:02.307Z,9.27
2019-04-11T11:09:02.335Z,9.51
2019-04-11T11:10:03.144Z,9.61
2019-04-11T11:11:02.384Z,9.69
2019-04-11T11:12:03.030Z,9.71
2019-04-11T11:13:02.347Z,9.75
2019-04-11T11:14:02.586Z,9.58
2019-04-11T11:15:03.162Z,9.62
2019-04-11T11:16:02.425Z,9.65
2019-04-11T11:17:02.469Z,9.66
2019-04-11T11:18:32.138Z,10.00
2019-04-11T11:19:31.616Z,10.43
2019-04-11T11:20:11.927Z,10.57
2019-04-11T11:21:04.265Z,10.95
2019-04-11T11:22:03.549Z,11.38
2019-04-11T11:23:05.794Z,11.73
2019-04-11T11:24:06.298Z,11.92
2019-04-11T11:25:02.449Z,12.08
2019-04-11T11:26:02.769Z,12.28
2019-04-11T11:27:04.114Z,12.33
2019-04-11T11:28:03.605Z,12.62
2019-04-11T11:29:07.365Z,12.82
2019-04-11T11:30:04.285Z,12.87
2019-04-11T11:31:03.218Z,12.36
2019-04-11T11:32:03.033Z,12.53
2019-04-11T11:33:02.385Z,12.39
2019-04-11T11:34:02.899Z,11.67
2019-04-11T11:35:03.411Z,11.17
2019-04-11T11:36:06.983Z,10.97
2019-04-11T11:37:02.648Z,11.18
2019-04-11T11:38:03.779Z,11.46
2019-04-11T11:39:02.544Z,11.65
2019-04-11T11:40:06.689Z,11.39
2019-04-11T11:41:02.346Z,11.45
2019-04-11T11:42:02.397Z,11.17
2019-04-11T11:43:03.131Z,10.79
2019-04-11T11:44:03.394Z,10.88
2019-04-11T11:45:03.992Z,10.67
2019-04-11T11:46:03.157Z,10.45
2019-04-11T11:47:03.855Z,10.24
2019-04-11T11:48:02.365Z,10.36
2019-04-11T11:49:02.956Z,10.32
2019-04-11T11:50:04.369Z,10.16
2019-04-11T11:51:03.373Z,10.09
2019-04-11T11:52:03.096Z,10.08
2019-04-11T11:53:08.173Z,10.01
2019-04-11T11:54:02.937Z,10.00
2019-04-11T11:55:02.331Z,10.05
2019-04-11T11:56:02.341Z,10.04
2019-04-11T11:57:02.466Z,9.98
2019-04-11T11:58:03.364Z,10.14
2019-04-11T11:59:02.865Z,10.18
2019-04-11T12:00:02.978Z,9.95
2019-04-11T12:01:05.845Z,9.84
2019-04-11T12:02:02.403Z,9.73
2019-04-11T12:03:03.586Z,9.69
2019-04-11T12:04:03.390Z,9.60
2019-04-11T12:05:02.624Z,9.31
2019-04-11T12:06:03.082Z,9.25
2019-04-11T12:07:03.864Z,9.36
2019-04-11T12:08:02.451Z,9.49
2019-04-11T12:09:02.546Z,9.62
2019-04-11T12:10:02.802Z,9.60
2019-04-11T12:11:02.452Z,9.65
2019-04-11T12:12:02.466Z,9.64
2019-04-11T12:13:06.631Z,9.31
2019-04-11T12:14:02.387Z,9.39
2019-04-11T12:15:03.450Z,9.60
2019-04-11T12:16:03.586Z,9.87
2019-04-11T12:17:05.161Z,10.13
2019-04-11T12:18:04.535Z,10.06
2019-04-11T12:19:02.661Z,10.13
2019-04-11T12:20:08.915Z,10.20
2019-04-11T12:21:03.225Z,10.53
2019-04-11T12:22:02.458Z,10.65
2019-04-11T12:23:02.416Z,10.69
2019-04-11T12:24:06.085Z,10.84
2019-04-11T12:25:02.946Z,10.88
2019-04-11T12:26:03.199Z,10.90
2019-04-11T12:27:02.484Z,10.94
2019-04-11T12:28:05.295Z,10.94
2019-04-11T12:29:02.375Z,10.80
2019-04-11T12:30:05.403Z,10.65
2019-04-11T12:31:03.812Z,10.38
2019-04-11T12:32:02.453Z,10.32
2019-04-11T12:33:03.435Z,9.91
2019-04-11T12:34:02.455Z,9.95
2019-04-11T12:35:02.389Z,9.97
2019-04-11T12:36:03.481Z,9.98
2019-04-11T12:37:02.649Z,9.98
2019-04-11T12:38:02.519Z,10.04
2019-04-11T12:39:02.480Z,10.18
2019-04-11T12:40:02.403Z,10.32
2019-04-11T12:41:02.468Z,10.43
2019-04-11T12:42:02.471Z,10.65
2019-04-11T12:43:02.417Z,10.97
2019-04-11T12:44:02.473Z,11.35
2019-04-11T12:45:02.479Z,11.75
2019-04-11T12:46:02.412Z,11.86
2019-04-11T12:47:02.480Z,12.22
2019-04-11T12:48:02.486Z,12.68
2019-04-11T12:49:02.454Z,12.92
2019-04-11T12:50:02.486Z,12.91
2019-04-11T12:51:02.480Z,12.98
2019-04-11T12:52:02.413Z,12.76
2019-04-11T12:53:02.438Z,12.37
2019-04-11T12:54:02.414Z,12.31
2019-04-11T12:55:02.372Z,12.16
2019-04-11T12:56:02.396Z,12.08
2019-04-11T12:57:02.366Z,12.03
2019-04-11T12:58:02.476Z,11.82
2019-04-11T12:59:02.370Z,11.78
2019-04-11T13:00:02.384Z,11.50
2019-04-11T13:01:02.476Z,11.38
2019-04-11T13:02:02.415Z,10.86
2019-04-11T13:03:02.390Z,10.61
2019-04-11T13:04:02.414Z,10.63
2019-04-11T13:05:02.402Z,10.68